createdAt,value
2015-11-14T00:00:55.586Z,7.7
2015-11-14T00:01:55.543Z,7.7
2015-11-14T00:02:55.482Z,7.7
2015-11-14T00:03:55.423Z,7.7
2015-11-14T00:04:55.363Z,7.7
2015-11-14T00:05:55.319Z,7.7
2015-11-14T00:06:55.260Z,7.7
2015-11-14T00:07:55.215Z,7.7
2015-11-14T00:08:55.140Z,7.7
2015-11-14T00:09:55.096Z,7.7
2015-11-14T00:10:55.036Z,7.7
2015-11-14T00:11:54.974Z,7.6
2015-11-14T00:12:54.913Z,7.6
2015-11-14T00:13:54.868Z,7.6
2015-11-14T00:14:54.810Z,7.7
2015-11-14T00:15:54.749Z,7.6
2015-11-14T00:16:54.706Z,7.6
2015-11-14T00:17:54.629Z,7.6
2015-11-14T00:18:54.586Z,7.6
2015-11-14T00:19:54.526Z,7.6
2015-11-14T00:20:54.467Z,7.6
2015-11-14T00:21:54.437Z,7.5
2015-11-14T00:22:54.362Z,7.6
2015-11-14T00:23:54.303Z,7.6
2015-11-14T00:24:54.243Z,7.5
2015-11-14T00:25:54.199Z,7.5
2015-11-14T00:26:54.155Z,7.5
2015-11-14T00:27:54.079Z,7.6
2015-11-14T00:28:54.020Z,7.5
2015-11-14T00:29:53.960Z,7.5
2015-11-14T00:30:53.916Z,7.4
2015-11-14T00:31:53.856Z,7.4
2015-11-14T00:32:53.796Z,7.3
2015-11-14T00:33:53.737Z,7.4
2015-11-14T00:34:53.692Z,7.4
2015-11-14T00:35:53.633Z,7.3
2015-11-14T00:36:53.573Z,7.3
2015-11-14T00:37:53.514Z,7.3
2015-11-14T00:38:53.469Z,7.2
2015-11-14T00:39:53.409Z,7.1
2015-11-14T00:40:53.350Z,7.1
2015-11-14T00:41:53.306Z,7.2
2015-11-14T00:42:53.246Z,7.2
2015-11-14T00:43:53.187Z,7.1
2015-11-14T00:44:53.127Z,7.1
2015-11-14T00:45:53.082Z,7.1
2015-11-14T00:46:53.023Z,7.2
2015-11-14T00:47:52.963Z,7.2
2015-11-14T00:48:52.903Z,7.2
2015-11-14T00:49:52.840Z,7.3
2015-11-14T00:50:52.797Z,7.3
2015-11-14T00:51:52.737Z,7.2
2015-11-14T00:52:52.692Z,7.3
2015-11-14T00:53:52.648Z,7.2
2015-11-14T00:54:52.573Z,7.1
2015-11-14T00:55:52.514Z,7.1
2015-11-14T00:56:52.485Z,7.2
2015-11-14T00:57:52.409Z,7.2
2015-11-14T00:58:52.349Z,7.3
2015-11-14T00:59:52.322Z,7.5
2015-11-14T01:00:52.245Z,7.6
2015-11-14T01:01:52.170Z,7.7
2015-11-14T01:02:52.125Z,7.7
2015-11-14T01:03:52.067Z,7.7
2015-11-14T01:04:52.006Z,7.6
2015-11-14T01:05:51.947Z,7.5
2015-11-14T01:06:51.903Z,7.5
2015-11-14T01:07:51.844Z,7.5
2015-11-14T01:08:51.783Z,7.5
2015-11-14T01:09:51.724Z,7.6
2015-11-14T01:10:51.664Z,7.4
2015-11-14T01:11:51.620Z,7.4
2015-11-14T01:12:51.561Z,7.4
2015-11-14T01:13:51.500Z,7.4
2015-11-14T01:14:51.441Z,7.3
2015-11-14T01:15:51.381Z,7.3
2015-11-14T01:16:51.337Z,7.2
2015-11-14T01:17:51.273Z,7.2
2015-11-14T01:18:51.212Z,7.1
2015-11-14T01:19:51.153Z,7
2015-11-14T01:20:51.109Z,7.1
2015-11-14T01:21:51.049Z,7
2015-11-14T01:22:50.989Z,7
2015-11-14T01:23:50.930Z,7.1
2015-11-14T01:24:50.886Z,7.1
2015-11-14T01:25:50.825Z,7.1
2015-11-14T01:26:50.766Z,7.1
2015-11-14T01:27:50.705Z,7.1
2015-11-14T01:28:50.694Z,7.1
2015-11-14T01:29:50.584Z,7
2015-11-14T01:30:50.540Z,7.1
2015-11-14T01:31:50.480Z,7.1
2015-11-14T01:32:50.419Z,7.2
2015-11-14T01:33:50.360Z,7.2
2015-11-14T01:34:50.301Z,7.2
2015-11-14T01:35:50.256Z,7.2
2015-11-14T01:36:50.197Z,7.2
2015-11-14T01:37:50.152Z,7.3
2015-11-14T01:38:50.077Z,7.2
2015-11-14T01:39:50.049Z,7.3
2015-11-14T01:40:49.973Z,7.2
2015-11-14T01:41:49.914Z,7.2
2015-11-14T01:42:49.855Z,7.3
2015-11-14T01:43:49.794Z,7.2
2015-11-14T01:44:49.750Z,7.2
2015-11-14T01:45:49.691Z,7.2
2015-11-14T01:46:49.631Z,7.3
2015-11-14T01:47:49.571Z,7.3
2015-11-14T01:48:49.511Z,7.2
2015-11-14T01:49:49.467Z,7.2
2015-11-14T01:50:49.408Z,7.3
2015-11-14T01:51:49.347Z,7.3
2015-11-14T01:52:49.288Z,7.2
2015-11-14T01:53:49.228Z,7.1
2015-11-14T01:54:49.184Z,7.1
2015-11-14T01:55:49.140Z,7.2
2015-11-14T01:56:49.065Z,7.2
2015-11-14T01:57:49.005Z,7.1
2015-11-14T01:58:48.943Z,7.2
2015-11-14T01:59:48.900Z,7.1
2015-11-14T02:00:48.840Z,7
2015-11-14T02:01:48.796Z,7
2015-11-14T02:02:48.721Z,7
2015-11-14T02:03:48.661Z,7
2015-11-14T02:04:48.617Z,7
2015-11-14T02:05:48.556Z,7
2015-11-14T02:06:48.498Z,7
2015-11-14T02:07:48.438Z,7
2015-11-14T02:08:48.376Z,7
2015-11-14T02:09:48.331Z,7
2015-11-14T02:10:48.271Z,7
2015-11-14T02:11:48.212Z,7
2015-11-14T02:12:48.151Z,7
2015-11-14T02:13:48.091Z,7.1
2015-11-14T02:14:48.048Z,7
2015-11-14T02:15:47.987Z,7
2015-11-14T02:16:47.928Z,7
2015-11-14T02:17:47.868Z,6.9
2015-11-14T02:18:47.808Z,6.9
2015-11-14T02:19:47.765Z,6.9
2015-11-14T02:20:47.705Z,6.9
2015-11-14T02:21:47.645Z,6.9
2015-11-14T02:22:47.600Z,6.9
2015-11-14T02:23:47.542Z,7
2015-11-14T02:24:47.482Z,7
2015-11-14T02:25:47.422Z,6.9
2015-11-14T02:26:47.378Z,7
2015-11-14T02:27:47.318Z,6.9
2015-11-14T02:28:47.259Z,7
2015-11-14T02:29:47.198Z,7
2015-11-14T02:30:47.139Z,7
2015-11-14T02:31:47.094Z,7
2015-11-14T02:32:47.035Z,6.9
2015-11-14T02:33:46.976Z,6.9
2015-11-14T02:34:46.915Z,6.8
2015-11-14T02:35:46.872Z,6.8
2015-11-14T02:36:46.811Z,6.9
2015-11-14T02:37:46.752Z,6.9
2015-11-14T02:38:46.693Z,6.8
2015-11-14T02:39:46.648Z,6.8
2015-11-14T02:40:46.589Z,6.9
2015-11-14T02:41:46.528Z,6.9
2015-11-14T02:42:46.469Z,6.8
2015-11-14T02:43:46.409Z,6.8
2015-11-14T02:44:46.365Z,6.8
2015-11-14T02:45:46.306Z,6.8
2015-11-14T02:46:46.245Z,6.8
2015-11-14T02:47:46.186Z,6.8
2015-11-14T02:48:46.123Z,6.8
2015-11-14T02:49:46.078Z,6.8
2015-11-14T02:50:46.019Z,6.8
2015-11-14T02:51:45.959Z,6.7
2015-11-14T02:52:45.916Z,6.7
2015-11-14T02:53:45.839Z,6.7
2015-11-14T02:54:45.796Z,6.7
2015-11-14T02:55:45.736Z,6.7
2015-11-14T02:56:45.676Z,6.7
2015-11-14T02:57:45.616Z,6.7
2015-11-14T02:58:45.557Z,6.8
2015-11-14T02:59:45.513Z,6.8
2015-11-14T03:00:45.452Z,6.7
2015-11-14T03:01:45.394Z,6.6
2015-11-14T03:02:45.334Z,6.7
2015-11-14T03:03:45.289Z,6.7
2015-11-14T03:04:45.224Z,6.7
2015-11-14T03:05:45.152Z,6.7
2015-11-14T03:06:45.083Z,6.7
2015-11-14T03:07:45.013Z,6.7
2015-11-14T03:08:44.958Z,6.7
2015-11-14T03:09:44.894Z,6.7
2015-11-14T03:10:44.830Z,6.7
2015-11-14T03:11:44.768Z,6.7
2015-11-14T03:12:44.736Z,6.7
2015-11-14T03:13:44.657Z,6.6
2015-11-14T03:14:44.595Z,6.6
2015-11-14T03:15:44.534Z,6.7
2015-11-14T03:16:44.474Z,6.7
2015-11-14T03:17:44.413Z,6.7
2015-11-14T03:18:44.352Z,6.7
2015-11-14T03:19:44.292Z,6.7
2015-11-14T03:20:44.247Z,6.7
2015-11-14T03:21:44.187Z,6.7
2015-11-14T03:22:44.127Z,6.7
2015-11-14T03:23:44.067Z,6.7
2015-11-14T03:24:44.007Z,6.8
2015-11-14T03:25:43.962Z,6.7
2015-11-14T03:26:43.899Z,6.8
2015-11-14T03:27:43.840Z,6.8
2015-11-14T03:28:43.779Z,6.8
2015-11-14T03:29:43.734Z,6.8
2015-11-14T03:30:43.675Z,6.8
2015-11-14T03:31:43.614Z,6.7
2015-11-14T03:32:43.555Z,6.8
2015-11-14T03:33:43.495Z,6.8
2015-11-14T03:34:43.436Z,6.8
2015-11-14T03:35:43.376Z,6.8
2015-11-14T03:36:43.317Z,6.8
2015-11-14T03:37:43.272Z,6.8
2015-11-14T03:38:43.213Z,6.7
2015-11-14T03:39:43.153Z,6.7
2015-11-14T03:40:43.093Z,6.7
2015-11-14T03:41:43.033Z,6.7
2015-11-14T03:42:42.989Z,6.7
2015-11-14T03:43:42.914Z,6.8
2015-11-14T03:44:42.869Z,6.8
2015-11-14T03:45:42.810Z,6.8
2015-11-14T03:46:42.750Z,6.8
2015-11-14T03:47:42.691Z,6.8
2015-11-14T03:48:42.631Z,6.8
2015-11-14T03:49:42.586Z,6.8
2015-11-14T03:50:42.527Z,6.8
2015-11-14T03:51:42.467Z,6.7
2015-11-14T03:52:42.408Z,6.7
2015-11-14T03:53:42.363Z,6.7
2015-11-14T03:54:42.288Z,6.7
2015-11-14T03:55:42.228Z,6.7
2015-11-14T03:56:42.183Z,6.7
2015-11-14T03:57:42.109Z,6.7
2015-11-14T03:58:42.065Z,6.6
2015-11-14T03:59:42.005Z,6.6
2015-11-14T04:00:41.945Z,6.6
2015-11-14T04:01:41.886Z,6.5
2015-11-14T04:02:41.825Z,6.5
2015-11-14T04:03:41.766Z,6.5
2015-11-14T04:04:41.722Z,6.5
2015-11-14T04:05:41.660Z,6.5
2015-11-14T04:06:41.599Z,6.5
2015-11-14T04:07:41.540Z,6.6
2015-11-14T04:08:41.480Z,6.6
2015-11-14T04:09:41.421Z,6.7
2015-11-14T04:10:41.360Z,6.7
2015-11-14T04:11:41.316Z,6.7
2015-11-14T04:12:41.257Z,6.6
2015-11-14T04:13:41.197Z,6.6
2015-11-14T04:14:41.138Z,6.6
2015-11-14T04:15:41.077Z,6.6
2015-11-14T04:16:41.033Z,6.5
2015-11-14T04:17:40.973Z,6.5
2015-11-14T04:18:40.899Z,6.5
2015-11-14T04:19:40.869Z,6.4
2015-11-14T04:20:40.794Z,6.5
2015-11-14T04:21:40.735Z,6.5
2015-11-14T04:22:40.674Z,6.5
2015-11-14T04:23:40.615Z,6.6
2015-11-14T04:24:40.556Z,6.5
2015-11-14T04:25:40.511Z,6.5
2015-11-14T04:26:40.452Z,6.6
2015-11-14T04:27:40.392Z,6.6
2015-11-14T04:28:40.348Z,6.6
2015-11-14T04:29:40.272Z,6.6
2015-11-14T04:30:40.228Z,6.6
2015-11-14T04:31:40.168Z,6.6
2015-11-14T04:32:40.109Z,6.5
2015-11-14T04:33:40.049Z,6.6
2015-11-14T04:34:39.990Z,6.5
2015-11-14T04:35:39.929Z,6.5
2015-11-14T04:36:39.886Z,6.6
2015-11-14T04:37:39.826Z,6.6
2015-11-14T04:38:39.766Z,6.6
2015-11-14T04:39:39.722Z,6.6
2015-11-14T04:40:39.662Z,6.6
2015-11-14T04:41:39.602Z,6.6
2015-11-14T04:42:39.543Z,6.7
2015-11-14T04:43:39.482Z,6.7
2015-11-14T04:44:39.423Z,6.6
2015-11-14T04:45:39.379Z,6.6
2015-11-14T04:46:39.316Z,6.6
2015-11-14T04:47:39.257Z,6.6
2015-11-14T04:48:39.196Z,6.6
2015-11-14T04:49:39.137Z,6.7
2015-11-14T04:50:39.077Z,6.7
2015-11-14T04:51:39.033Z,6.7
2015-11-14T04:52:38.973Z,6.7
2015-11-14T04:53:38.914Z,6.7
2015-11-14T04:54:38.854Z,6.7
2015-11-14T04:55:38.809Z,6.7
2015-11-14T04:56:38.750Z,6.7
2015-11-14T04:57:38.690Z,6.7
2015-11-14T04:58:38.631Z,6.7
2015-11-14T04:59:38.571Z,6.6
2015-11-14T05:00:38.511Z,6.6
2015-11-14T05:01:38.467Z,6.5
2015-11-14T05:02:38.423Z,6.6
2015-11-14T05:03:38.348Z,6.5
2015-11-14T05:04:38.288Z,6.5
2015-11-14T05:05:38.228Z,6.5
2015-11-14T05:06:38.168Z,6.5
2015-11-14T05:07:38.109Z,6.5
2015-11-14T05:08:38.049Z,6.5
2015-11-14T05:09:38.004Z,6.5
2015-11-14T05:10:37.945Z,6.6
2015-11-14T05:11:37.885Z,6.6
2015-11-14T05:12:37.825Z,6.6
2015-11-14T05:13:37.766Z,6.6
2015-11-14T05:14:37.723Z,6.6
2015-11-14T05:15:37.662Z,6.6
2015-11-14T05:16:37.603Z,6.6
2015-11-14T05:17:37.543Z,6.5
2015-11-14T05:18:37.483Z,6.5
2015-11-14T05:19:37.439Z,6.5
2015-11-14T05:20:37.364Z,6.5
2015-11-14T05:21:37.319Z,6.6
2015-11-14T05:22:37.256Z,6.5
2015-11-14T05:23:37.197Z,6.5
2015-11-14T05:24:37.137Z,6.5
2015-11-14T05:25:37.092Z,6.5
2015-11-14T05:26:37.033Z,6.4
2015-11-14T05:27:36.973Z,6.4
2015-11-14T05:28:36.914Z,6.4
2015-11-14T05:29:36.854Z,6.5
2015-11-14T05:30:36.794Z,6.5
2015-11-14T05:31:36.734Z,6.5
2015-11-14T05:32:36.689Z,6.6
2015-11-14T05:33:36.631Z,6.5
2015-11-14T05:34:36.571Z,6.6
2015-11-14T05:35:36.511Z,6.5
2015-11-14T05:36:36.451Z,6.5
2015-11-14T05:37:36.392Z,6.5
2015-11-14T05:38:36.363Z,6.5
2015-11-14T05:39:36.288Z,6.5
2015-11-14T05:40:36.228Z,6.6
2015-11-14T05:41:36.169Z,6.6
2015-11-14T05:42:36.109Z,6.6
2015-11-14T05:43:36.065Z,6.6
2015-11-14T05:44:36.006Z,6.6
2015-11-14T05:46:35.916Z,6.7
2015-11-14T05:47:35.825Z,6.7
2015-11-14T05:48:35.781Z,6.7
2015-11-14T05:49:35.722Z,6.7
2015-11-14T05:50:35.724Z,6.7
2015-11-14T05:51:35.602Z,6.8
2015-11-14T05:52:35.542Z,6.8
2015-11-14T05:53:35.498Z,6.9
2015-11-14T05:54:35.423Z,6.9
2015-11-14T05:55:35.378Z,6.9
2015-11-14T05:56:35.319Z,6.9
2015-11-14T05:57:35.275Z,6.9
2015-11-14T05:58:35.215Z,6.9
2015-11-14T05:59:35.156Z,6.8
2015-11-14T06:00:35.283Z,6.9
2015-11-14T06:01:35.033Z,6.9
2015-11-14T06:02:34.974Z,6.8
2015-11-14T06:03:34.913Z,6.8
2015-11-14T06:04:34.869Z,6.8
2015-11-14T06:05:34.903Z,6.9
2015-11-14T06:06:34.906Z,6.8
2015-11-14T06:07:34.691Z,6.9
2015-11-14T06:08:34.631Z,6.8
2015-11-14T06:09:34.602Z,6.9
2015-11-14T06:10:34.527Z,6.9
2015-11-14T06:11:34.466Z,7
2015-11-14T06:12:34.407Z,7
2015-11-14T06:13:34.347Z,6.9
2015-11-14T06:14:34.288Z,7
2015-11-14T06:15:34.243Z,6.9
2015-11-14T06:16:34.183Z,6.9
2015-11-14T06:17:34.124Z,6.9
2015-11-14T06:18:34.063Z,6.9
2015-11-14T06:19:34.005Z,7
2015-11-14T06:20:33.944Z,7
2015-11-14T06:21:33.901Z,7
2015-11-14T06:22:33.841Z,7.1
2015-11-14T06:23:33.782Z,7.1
2015-11-14T06:24:33.721Z,7.1
2015-11-14T06:25:33.677Z,7.1
2015-11-14T06:26:33.618Z,7.1
2015-11-14T06:27:33.558Z,7.1
2015-11-14T06:28:33.498Z,7.1
2015-11-14T06:29:33.439Z,7
2015-11-14T06:30:33.379Z,7
2015-11-14T06:31:33.335Z,7
2015-11-14T06:32:33.275Z,7.1
2015-11-14T06:33:33.216Z,7.1
2015-11-14T06:34:33.155Z,7.1
2015-11-14T06:35:33.111Z,7.1
2015-11-14T06:36:33.051Z,7
2015-11-14T06:37:32.992Z,7.1
2015-11-14T06:38:32.949Z,7
2015-11-14T06:39:32.888Z,7
2015-11-14T06:40:32.829Z,7.1
2015-11-14T06:41:32.768Z,7.1
2015-11-14T06:42:32.706Z,7.1
2015-11-14T06:43:32.646Z,7
2015-11-14T06:44:32.587Z,7
2015-11-14T06:45:32.543Z,7
2015-11-14T06:46:32.482Z,7
2015-11-14T06:47:32.423Z,7
2015-11-14T06:48:32.379Z,7
2015-11-14T06:49:32.318Z,7
2015-11-14T06:50:32.260Z,7
2015-11-14T06:51:32.200Z,7
2015-11-14T06:52:32.140Z,7
2015-11-14T06:53:32.080Z,7
2015-11-14T06:54:32.036Z,7.1
2015-11-14T06:55:31.977Z,7.1
2015-11-14T06:56:31.916Z,7.1
2015-11-14T06:57:31.856Z,7
2015-11-14T06:58:31.797Z,7.1
2015-11-14T06:59:31.753Z,7.1
2015-11-14T07:00:31.677Z,7
2015-11-14T07:01:31.634Z,7.1
2015-11-14T07:02:31.730Z,7.1
2015-11-14T07:03:31.514Z,7.1
2015-11-14T07:04:31.470Z,7.1
2015-11-14T07:05:31.409Z,7
2015-11-14T07:06:31.334Z,7
2015-11-14T07:07:31.306Z,6.9
2015-11-14T07:08:31.231Z,7
2015-11-14T07:09:31.171Z,6.9
2015-11-14T07:10:31.111Z,6.9
2015-11-14T07:11:31.051Z,6.9
2015-11-14T07:12:31.007Z,6.9
2015-11-14T07:13:30.963Z,6.8
2015-11-14T07:14:30.904Z,6.8
2015-11-14T07:15:30.968Z,6.7
2015-11-14T07:16:30.769Z,6.8
2015-11-14T07:17:30.724Z,6.8
2015-11-14T07:18:30.649Z,6.7
2015-11-14T07:19:31.026Z,6.7
2015-11-14T07:20:30.545Z,6.7
2015-11-14T07:21:30.482Z,6.8
2015-11-14T07:22:30.439Z,6.7
2015-11-14T07:23:30.363Z,6.8
2015-11-14T07:24:30.319Z,6.9
2015-11-14T07:25:30.259Z,7
2015-11-14T07:26:30.214Z,7
2015-11-14T07:27:30.139Z,7.1
2015-11-14T07:28:30.080Z,7.1
2015-11-14T07:29:30.036Z,7.2
2015-11-14T07:30:29.976Z,7.2
2015-11-14T07:31:29.917Z,7.2
2015-11-14T07:32:29.856Z,7.5
2015-11-14T07:33:29.797Z,7.7
2015-11-14T07:34:29.753Z,7.7
2015-11-14T07:35:29.692Z,7.6
2015-11-14T07:36:29.633Z,7.7
2015-11-14T07:37:29.574Z,7.8
2015-11-14T07:38:29.514Z,7.9
2015-11-14T07:39:29.454Z,7.8
2015-11-14T07:40:29.410Z,7.5
2015-11-14T07:41:29.350Z,7.4
2015-11-14T07:42:29.290Z,7.4
2015-11-14T07:43:29.231Z,7.4
2015-11-14T07:44:29.249Z,7.4
2015-11-14T07:45:29.127Z,7.4
2015-11-14T07:46:29.068Z,7.4
2015-11-14T07:47:29.039Z,7.5
2015-11-14T07:48:28.948Z,7.5
2015-11-14T07:49:28.889Z,7.5
2015-11-14T07:50:28.876Z,7.6
2015-11-14T07:51:28.784Z,7.6
2015-11-14T07:52:28.725Z,7.6
2015-11-14T07:53:28.665Z,7.6
2015-11-14T07:54:28.606Z,7.6
2015-11-14T07:55:28.562Z,7.6
2015-11-14T07:56:28.486Z,7.6
2015-11-14T07:57:28.441Z,7.6
2015-11-14T07:58:28.378Z,7.7
2015-11-14T07:59:28.334Z,7.7
2015-11-14T08:00:28.275Z,7.8
2015-11-14T08:01:28.214Z,7.8
2015-11-14T08:02:28.156Z,7.8
2015-11-14T08:03:28.111Z,7.8
2015-11-14T08:04:28.052Z,7.7
2015-11-14T08:05:27.992Z,7.6
2015-11-14T08:06:27.932Z,7.8
2015-11-14T08:07:27.888Z,7.8
2015-11-14T08:08:28.047Z,7.8
2015-11-14T08:09:27.769Z,7.8
2015-11-14T08:10:27.709Z,7.8
2015-11-14T08:11:40.383Z,7.8
2015-11-14T08:12:27.605Z,7.9
2015-11-14T08:13:27.608Z,7.8
2015-11-14T08:14:27.486Z,7.9
2015-11-14T08:15:27.426Z,7.9
2015-11-14T08:16:27.382Z,7.9
2015-11-14T08:17:27.306Z,7.9
2015-11-14T08:18:27.262Z,7.9
2015-11-14T08:19:27.203Z,8
2015-11-14T08:20:27.142Z,8
2015-11-14T08:21:27.099Z,8.1
2015-11-14T08:22:27.039Z,8
2015-11-14T08:23:27.010Z,8
2015-11-14T08:24:26.935Z,8
2015-11-14T08:25:26.875Z,8.1
2015-11-14T08:26:26.815Z,8.2
2015-11-14T08:27:26.755Z,8.2
2015-11-14T08:28:26.696Z,8.3
2015-11-14T08:29:26.637Z,8.3
2015-11-14T08:30:26.577Z,8.3
2015-11-14T08:31:26.533Z,8.3
2015-11-14T08:32:26.473Z,8.3
2015-11-14T08:33:26.428Z,8.3
2015-11-14T08:34:26.369Z,8.2
2015-11-14T08:35:26.322Z,8.3
2015-11-14T08:36:26.247Z,8.3
2015-11-14T08:37:26.186Z,8.3
2015-11-14T08:38:26.143Z,8.4
2015-11-14T08:39:26.114Z,8.5
2015-11-14T08:40:26.039Z,8.5
2015-11-14T08:41:25.980Z,8.4
2015-11-14T08:42:25.918Z,8.5
2015-11-14T08:43:25.860Z,8.5
2015-11-14T08:44:25.830Z,8.5
2015-11-14T08:45:25.756Z,8.6
2015-11-14T08:46:25.696Z,8.6
2015-11-14T08:47:25.652Z,8.7
2015-11-14T08:48:25.592Z,8.6
2015-11-14T08:49:25.533Z,8.5
2015-11-14T08:50:25.472Z,8.7
2015-11-14T08:51:25.444Z,8.8
2015-11-14T08:52:25.368Z,8.8
2015-11-14T08:53:25.324Z,8.8
2015-11-14T08:54:25.249Z,8.9
2015-11-14T08:55:25.205Z,8.9
2015-11-14T08:56:25.161Z,9.1
2015-11-14T08:57:25.085Z,9.1
2015-11-14T08:58:25.041Z,9.1
2015-11-14T08:59:25.029Z,9
2015-11-14T09:00:24.937Z,8.9
2015-11-14T09:01:24.877Z,9
2015-11-14T09:02:24.818Z,9
2015-11-14T09:03:24.758Z,8.9
2015-11-14T09:04:24.715Z,8.9
2015-11-14T09:05:24.655Z,8.8
2015-11-14T09:06:24.611Z,8.9
2015-11-14T09:07:24.535Z,9.1
2015-11-14T09:08:24.491Z,9.1
2015-11-14T09:09:24.432Z,9.1
2015-11-14T09:10:24.371Z,9.1
2015-11-14T09:11:24.327Z,9
2015-11-14T09:12:24.268Z,9
2015-11-14T09:13:24.205Z,9
2015-11-14T09:14:24.161Z,9
2015-11-14T09:15:24.118Z,9.2
2015-11-14T09:16:24.057Z,9.1
2015-11-14T09:17:23.998Z,9.1
2015-11-14T09:18:23.938Z,9.1
2015-11-14T09:19:23.878Z,8.9
2015-11-14T09:20:23.819Z,8.9
2015-11-14T09:21:23.774Z,9
2015-11-14T09:22:23.715Z,9
2015-11-14T09:23:23.655Z,9
2015-11-14T09:24:23.610Z,9.1
2015-11-14T09:25:23.551Z,9.1
2015-11-14T09:26:23.491Z,9.3
2015-11-14T09:27:23.447Z,9.3
2015-11-14T09:28:23.387Z,9.2
2015-11-14T09:29:23.327Z,9.3
2015-11-14T09:30:23.268Z,9.2
2015-11-14T09:31:23.224Z,9.4
2015-11-14T09:32:23.165Z,9.4
2015-11-14T09:33:23.121Z,9.4
2015-11-14T09:34:23.060Z,9.4
2015-11-14T09:35:23.000Z,9.4
2015-11-14T09:36:22.971Z,9.4
2015-11-14T09:37:22.897Z,9.3
2015-11-14T09:38:22.837Z,9.3
2015-11-14T09:39:22.776Z,9.3
2015-11-14T09:40:22.717Z,9.2
2015-11-14T09:41:22.673Z,9.2
2015-11-14T09:42:22.613Z,9.2
2015-11-14T09:43:22.570Z,9.4
2015-11-14T09:44:22.494Z,9.6
2015-11-14T09:45:22.450Z,9.8
2015-11-14T09:46:22.390Z,9.9
2015-11-14T09:47:22.346Z,9.9
2015-11-14T09:48:22.287Z,9.7
2015-11-14T09:49:22.226Z,9.7
2015-11-14T09:50:22.164Z,9.4
2015-11-14T09:51:22.104Z,9.5
2015-11-14T09:52:22.059Z,9.4
2015-11-14T09:53:22.000Z,9.4
2015-11-14T09:54:21.956Z,9.3
2015-11-14T09:55:21.881Z,9.3
2015-11-14T09:56:21.836Z,9.4
2015-11-14T09:57:21.792Z,9.4
2015-11-14T09:58:21.717Z,9.5
2015-11-14T09:59:21.673Z,9.4
2015-11-14T10:00:21.614Z,9.4
2015-11-14T10:01:21.569Z,9.4
2015-11-14T10:02:21.509Z,9.3
2015-11-14T10:03:21.449Z,9.3
2015-11-14T10:04:21.406Z,9.3
2015-11-14T10:05:21.346Z,9.2
2015-11-14T10:06:21.286Z,9.2
2015-11-14T10:07:21.228Z,9.3
2015-11-14T10:08:21.161Z,9.3
2015-11-14T10:09:21.117Z,9.3
2015-11-14T10:10:21.294Z,9.3
2015-11-14T10:11:20.999Z,9.4
2015-11-14T10:12:20.940Z,9.3
2015-11-14T10:13:20.880Z,9.3
2015-11-14T10:14:20.836Z,9.2
2015-11-14T10:15:20.777Z,9.2
2015-11-14T10:16:20.716Z,9.2
2015-11-14T10:17:20.672Z,9.4
2015-11-14T10:18:20.613Z,9.4
2015-11-14T10:19:20.553Z,9.4
2015-11-14T10:20:20.493Z,9.5
2015-11-14T10:21:20.465Z,9.5
2015-11-14T10:22:20.389Z,9.4
2015-11-14T10:23:20.346Z,9.4
2015-11-14T10:24:20.286Z,9.6
2015-11-14T10:25:20.226Z,9.4
2015-11-14T10:26:20.167Z,9.5
2015-11-14T10:27:20.122Z,9.5
2015-11-14T10:28:20.063Z,9.5
2015-11-14T10:29:20.003Z,9.6
2015-11-14T10:30:19.943Z,9.6
2015-11-14T10:31:19.899Z,9.8
2015-11-14T10:32:19.836Z,9.8
2015-11-14T10:33:19.792Z,10.1
2015-11-14T10:34:19.732Z,10
2015-11-14T10:35:19.672Z,10.3
2015-11-14T10:36:19.612Z,10.4
2015-11-14T10:37:19.569Z,10.4
2015-11-14T10:38:19.524Z,10.4
2015-11-14T10:39:19.871Z,10.4
2015-11-14T10:40:19.390Z,10.1
2015-11-14T10:41:19.346Z,10.5
2015-11-14T10:42:19.286Z,10.4
2015-11-14T10:43:19.241Z,10.4
2015-11-14T10:44:19.182Z,10.5
2015-11-14T10:45:19.122Z,10.5
2015-11-14T10:46:19.062Z,10.4
2015-11-14T10:47:19.018Z,10.3
2015-11-14T10:48:18.958Z,10.4
2015-11-14T10:49:18.915Z,10.6
2015-11-14T10:50:18.854Z,10.5
2015-11-14T10:51:18.795Z,10.5
2015-11-14T10:52:18.751Z,10.6
2015-11-14T10:53:18.691Z,10.2
2015-11-14T10:54:18.632Z,10.3
2015-11-14T10:55:18.588Z,10.5
2015-11-14T10:56:18.527Z,10.4
2015-11-14T10:57:18.468Z,10.5
2015-11-14T10:58:18.423Z,10.6
2015-11-14T10:59:18.396Z,10.5
2015-11-14T11:00:18.320Z,10.4
2015-11-14T11:01:18.260Z,10.2
2015-11-14T11:02:18.201Z,10.2
2015-11-14T11:03:18.156Z,10.3
2015-11-14T11:04:18.096Z,10.5
2015-11-14T11:05:18.037Z,10.6
2015-11-14T11:06:17.993Z,10.5
2015-11-14T11:07:17.932Z,10.7
2015-11-14T11:08:17.921Z,10.8
2015-11-14T11:09:17.829Z,10.8
2015-11-14T11:10:17.769Z,10.8
2015-11-14T11:11:17.707Z,11
2015-11-14T11:12:17.663Z,10.9
2015-11-14T11:13:17.618Z,10.9
2015-11-14T11:14:17.558Z,11.1
2015-11-14T11:15:17.499Z,11.3
2015-11-14T11:16:17.439Z,11
2015-11-14T11:17:17.395Z,10.7
2015-11-14T11:18:17.350Z,10.6
2015-11-14T11:19:17.290Z,10.4
2015-11-14T11:20:17.231Z,10.3
2015-11-14T11:21:17.187Z,10.4
2015-11-14T11:22:17.127Z,10.5
2015-11-14T11:23:17.084Z,10.7
2015-11-14T11:24:17.023Z,10.7
2015-11-14T11:25:16.964Z,10.7
2015-11-14T11:26:16.919Z,10.8
2015-11-14T11:27:16.860Z,10.6
2015-11-14T11:28:16.800Z,10.4
2015-11-14T11:29:16.756Z,10.1
2015-11-14T11:30:16.696Z,10.3
2015-11-14T11:31:16.637Z,10.5
2015-11-14T11:32:16.593Z,10.3
2015-11-14T11:33:16.533Z,10.2
2015-11-14T11:34:16.473Z,10
2015-11-14T11:35:16.429Z,10.2
2015-11-14T11:36:16.369Z,10.3
2015-11-14T11:37:16.310Z,10.3
2015-11-14T11:38:16.265Z,10.1
2015-11-14T11:39:16.220Z,10.3
2015-11-14T11:40:16.146Z,10.4
2015-11-14T11:41:16.102Z,10.3
2015-11-14T11:42:16.042Z,9.9
2015-11-14T11:43:15.997Z,9.9
2015-11-14T11:44:15.939Z,9.8
2015-11-14T11:45:15.878Z,10
2015-11-14T11:46:15.835Z,10
2015-11-14T11:47:15.775Z,10
2015-11-14T11:48:15.871Z,10
2015-11-14T11:49:15.670Z,10
2015-11-14T11:50:15.611Z,9.9
2015-11-14T11:51:15.567Z,10
2015-11-14T11:52:15.504Z,10.1
2015-11-14T11:53:15.445Z,10
2015-11-14T11:54:15.384Z,10
2015-11-14T11:55:15.341Z,10
2015-11-14T11:56:15.280Z,9.9
2015-11-14T11:57:15.222Z,10
2015-11-14T11:58:15.178Z,9.9
2015-11-14T11:59:15.121Z,10.1
2015-11-14T12:00:15.062Z,10
2015-11-14T12:01:15.017Z,10.1
2015-11-14T12:02:14.957Z,10.2
2015-11-14T12:03:14.898Z,10.2
2015-11-14T12:04:14.838Z,10.1
2015-11-14T12:05:14.794Z,10
2015-11-14T12:06:14.734Z,9.9
2015-11-14T12:07:14.690Z,9.8
2015-11-14T12:08:14.630Z,9.8
2015-11-14T12:09:14.570Z,9.9
2015-11-14T12:10:14.527Z,9.9
2015-11-14T12:11:14.458Z,9.9
2015-11-14T12:12:14.386Z,9.8
2015-11-14T12:13:14.330Z,9.8
2015-11-14T12:14:14.259Z,9.8
2015-11-14T12:15:14.188Z,9.9
2015-11-14T12:16:14.138Z,9.8
2015-11-14T12:17:14.074Z,9.8
2015-11-14T12:18:14.010Z,9.8
2015-11-14T12:19:13.961Z,9.7
2015-11-14T12:20:13.897Z,9.8
2015-11-14T12:21:13.836Z,9.8
2015-11-14T12:22:13.790Z,9.8
2015-11-14T12:23:13.729Z,9.8
2015-11-14T12:24:13.668Z,9.8
2015-11-14T12:25:13.622Z,9.7
2015-11-14T12:26:13.562Z,9.7
2015-11-14T12:27:13.517Z,9.7
2015-11-14T12:28:13.441Z,9.6
2015-11-14T12:29:13.381Z,9.6
2015-11-14T12:30:13.337Z,9.7
2015-11-14T12:31:13.276Z,9.7
2015-11-14T12:32:13.232Z,9.6
2015-11-14T12:33:13.172Z,9.6
2015-11-14T12:34:13.109Z,9.6
2015-11-14T12:35:13.050Z,9.5
2015-11-14T12:36:13.005Z,9.6
2015-11-14T12:37:12.946Z,9.6
2015-11-14T12:38:12.902Z,9.6
2015-11-14T12:39:12.826Z,9.5
2015-11-14T12:40:12.782Z,9.4
2015-11-14T12:41:12.721Z,9.6
2015-11-14T12:42:12.662Z,9.5
2015-11-14T12:43:12.618Z,9.5
2015-11-14T12:44:12.558Z,9.4
2015-11-14T12:45:12.498Z,9.5
2015-11-14T12:46:12.454Z,9.5
2015-11-14T12:47:12.426Z,9.5
2015-11-14T12:48:12.334Z,9.5
2015-11-14T12:49:12.291Z,9.5
2015-11-14T12:50:12.232Z,9.5
2015-11-14T12:51:12.172Z,9.5
2015-11-14T12:52:12.127Z,9.5
2015-11-14T12:53:12.067Z,9.5
2015-11-14T12:54:12.007Z,9.4
2015-11-14T12:55:11.963Z,9.5
2015-11-14T12:56:11.904Z,9.5
2015-11-14T12:57:11.844Z,9.5
2015-11-14T12:58:11.800Z,9.5
2015-11-14T12:59:11.741Z,9.5
2015-11-14T13:00:11.680Z,9.6
2015-11-14T13:01:11.637Z,9.5
2015-11-14T13:02:11.577Z,9.4
2015-11-14T13:03:11.517Z,9.5
2015-11-14T13:04:11.458Z,9.5
2015-11-14T13:05:11.413Z,9.5
2015-11-14T13:06:11.354Z,9.6
2015-11-14T13:07:11.309Z,9.6
2015-11-14T13:08:11.249Z,9.5
2015-11-14T13:09:11.205Z,9.5
2015-11-14T13:10:11.146Z,9.6
2015-11-14T13:11:11.086Z,9.6
2015-11-14T13:12:11.024Z,9.6
2015-11-14T13:13:10.979Z,9.5
2015-11-14T13:14:10.920Z,9.4
2015-11-14T13:15:10.860Z,9.4
2015-11-14T13:16:10.816Z,9.4
2015-11-14T13:17:10.756Z,9.3
2015-11-14T13:18:10.696Z,9.3
2015-11-14T13:19:10.651Z,9.3
2015-11-14T13:20:10.592Z,9.3
2015-11-14T13:21:10.548Z,9.4
2015-11-14T13:22:10.488Z,9.4
2015-11-14T13:23:10.429Z,9.3
2015-11-14T13:24:10.384Z,9.4
2015-11-14T13:25:10.325Z,9.4
2015-11-14T13:26:10.265Z,9.4
2015-11-14T13:27:10.205Z,9.4
2015-11-14T13:28:10.161Z,9.4
2015-11-14T13:29:10.101Z,9.4
2015-11-14T13:30:10.042Z,9.3
2015-11-14T13:31:09.998Z,9.4
2015-11-14T13:32:09.937Z,9.3
2015-11-14T13:33:09.894Z,9.3
2015-11-14T13:34:09.834Z,9.4
2015-11-14T13:35:09.774Z,9.3
2015-11-14T13:36:09.731Z,9.4
2015-11-14T13:37:09.670Z,9.4
2015-11-14T13:38:09.611Z,9.3
2015-11-14T13:39:09.551Z,9.3
2015-11-14T13:40:09.507Z,9.3
2015-11-14T13:41:09.447Z,9.3
2015-11-14T13:42:09.387Z,9.3
2015-11-14T13:43:09.343Z,9.3
2015-11-14T13:44:09.284Z,9.3
2015-11-14T13:45:09.240Z,9.2
2015-11-14T13:46:09.180Z,9.3
2015-11-14T13:47:09.120Z,9.3
2015-11-14T13:48:09.075Z,9.2
2015-11-14T13:49:09.016Z,9.2
2015-11-14T13:50:08.953Z,9.2